Time;durP1;ratioP1;P1;durP2;ratioP2;P2;SDS_P1;SDS_P2;PMS_P1;PMS_P2;Temp;Humidity;BMP_temperature;BMP_pressure;BME280_temperature;BME280_humidity;BME280_pressure;Samples;Min_cycle;Max_cycle;Signal;HPM_P1;HPM_P2
2022/02/04 00:09:36;;;;;;;43.70;25.95;;;7.10;99.90;;;;;;5005860;28;20050;-66
2022/02/04 00:26:30;;;;;;;43.78;25.50;;;7.00;99.90;;;;;;4993867;28;20047;-66
2022/02/04 00:33:35;;;;;;;45.42;25.45;;;7.20;99.90;;;;;;5005046;28;20279;-66
2022/02/04 00:36:12;;;;;;;44.05;24.60;;;7.10;99.90;;;;;;4988542;28;20426;-66
2022/02/04 00:38:42;;;;;;;41.92;23.20;;;7.20;99.90;;;;;;5011773;28;20190;-67
2022/02/04 00:41:10;;;;;;;43.55;24.88;;;7.10;99.90;;;;;;5103637;28;20060;-67
2022/02/04 00:43:38;;;;;;;38.85;23.92;;;7.20;99.90;;;;;;5086936;28;20048;-66
2022/02/04 00:49:23;;;;;;;45.70;25.65;;;7.20;99.90;;;;;;5087257;28;20045;-67
2022/02/04 00:54:21;;;;;;;41.42;24.60;;;7.20;99.90;;;;;;5070905;28;20071;-66
2022/02/04 01:13:30;;;;;;;42.45;24.45;;;7.10;99.90;;;;;;5101611;28;20052;-66
2022/02/04 01:26:54;;;;;;;40.47;23.52;;;6.80;99.90;;;;;;5077017;28;20070;-67
2022/02/04 01:29:20;;;;;;;40.17;23.58;;;6.80;99.90;;;;;;5067668;28;20057;-67
2022/02/04 01:31:47;;;;;;;38.55;22.08;;;6.80;99.90;;;;;;5086393;28;20480;-66
2022/02/04 01:34:14;;;;;;;39.40;23.70;;;6.90;99.90;;;;;;5102198;28;20072;-66
2022/02/04 01:36:39;;;;;;;37.25;22.25;;;6.70;99.90;;;;;;5062890;28;20588;-66
2022/02/04 01:39:05;;;;;;;39.85;22.35;;;6.80;99.90;;;;;;5085962;28;20044;-66
2022/02/04 01:41:31;;;;;;;39.47;22.77;;;6.80;99.90;;;;;;5067860;28;20051;-67
2022/02/04 01:43:57;;;;;;;38.65;22.73;;;6.70;99.90;;;;;;5103161;28;20045;-66
2022/02/04 01:46:22;;;;;;;38.40;21.90;;;6.80;99.90;;;;;;5101482;28;20510;-66
2022/02/04 01:48:49;;;;;;;39.15;21.77;;;6.80;99.90;;;;;;5101268;28;20052;-67
2022/02/04 01:51:16;;;;;;;41.67;24.15;;;6.80;99.90;;;;;;5065982;28;20084;-66
2022/02/04 01:53:42;;;;;;;39.40;22.88;;;6.70;99.90;;;;;;5085239;28;20080;-66
2022/02/04 01:56:11;;;;;;;40.85;22.10;;;6.90;99.90;;;;;;5085561;28;20056;-66
2022/02/04 01:58:38;;;;;;;37.50;22.13;;;6.70;99.90;;;;;;5061373;28;20497;-66
2022/02/04 02:01:04;;;;;;;39.22;20.38;;;6.80;99.90;;;;;;5061874;28;20556;-67
2022/02/04 02:03:31;;;;;;;38.92;22.67;;;6.80;99.90;;;;;;5085649;28;20068;-66
2022/02/04 02:06:02;;;;;;;37.22;21.05;;;6.90;99.90;;;;;;5085785;28;20059;-66
2022/02/04 02:08:27;;;;;;;37.22;22.23;;;6.80;99.90;;;;;;5087014;28;20055;-66
2022/02/04 02:10:53;;;;;;;37.45;22.25;;;7.00;99.90;;;;;;5066276;28;20068;-66
2022/02/04 02:13:45;;;;;;;39.55;23.02;;;6.80;99.90;;;;;;5100685;28;20078;-66
2022/02/04 02:16:50;;;;;;;40.30;22.20;;;6.80;99.90;;;;;;5112803;28;20052;-66
2022/02/04 02:49:23;;;;;;;45.15;24.55;;;6.90;99.90;;;;;;5004086;28;20061;-66
2022/02/04 02:51:59;;;;;;;41.28;23.73;;;6.90;99.90;;;;;;5003663;28;20570;-67
2022/02/04 02:57:24;;;;;;;41.78;24.40;;;6.90;99.90;;;;;;5019426;28;20057;-66
2022/02/04 03:02:24;;;;;;;43.28;24.75;;;7.00;99.90;;;;;;5018932;28;20052;-66
2022/02/04 03:04:49;;;;;;;45.70;25.40;;;7.10;99.90;;;;;;5018536;28;20065;-66
2022/02/04 03:07:15;;;;;;;43.13;25.13;;;7.00;99.90;;;;;;5036497;28;20052;-66
2022/02/04 03:09:41;;;;;;;44.47;25.38;;;7.10;99.90;;;;;;5020940;28;20065;-66
2022/02/04 03:12:07;;;;;;;42.78;25.33;;;7.20;99.90;;;;;;5090559;28;20056;-66
2022/02/04 03:14:33;;;;;;;41.80;23.35;;;7.00;99.90;;;;;;5083567;28;20044;-66
2022/02/04 03:17:00;;;;;;;42.38;26.08;;;7.20;99.90;;;;;;5099444;28;20051;-66
2022/02/04 03:19:27;;;;;;;47.30;26.35;;;7.00;99.90;;;;;;5083857;28;20072;-66
2022/02/04 03:21:53;;;;;;;44.47;23.80;;;7.20;99.90;;;;;;5065703;28;20060;-66
2022/02/04 03:24:22;;;;;;;39.65;24.00;;;7.20;99.90;;;;;;5081759;28;20040;-67
2022/02/04 03:29:17;;;;;;;40.88;23.42;;;7.20;99.90;;;;;;5089506;28;20048;-66
2022/02/04 03:31:49;;;;;;;42.13;23.73;;;7.10;99.90;;;;;;5052568;28;20057;-67
2022/02/04 03:34:15;;;;;;;41.13;24.92;;;7.20;99.90;;;;;;5099216;28;20060;-66
2022/02/04 03:36:41;;;;;;;43.90;25.25;;;7.20;99.90;;;;;;5083116;28;20040;-66
2022/02/04 03:39:06;;;;;;;43.70;25.48;;;7.40;99.90;;;;;;5084072;28;20123;-66
2022/02/04 03:41:32;;;;;;;44.25;25.42;;;7.30;99.90;;;;;;5065582;28;20040;-66
2022/02/04 03:43:58;;;;;;;38.58;22.65;;;7.40;99.90;;;;;;5083455;28;20048;-66
2022/02/04 03:46:24;;;;;;;43.88;25.00;;;7.60;99.90;;;;;;5084223;28;20032;-66
2022/02/04 03:48:49;;;;;;;43.38;25.23;;;7.50;99.90;;;;;;5065564;28;20105;-67
2022/02/04 03:51:15;;;;;;;43.03;25.80;;;7.40;99.90;;;;;;5083684;28;20058;-66
2022/02/04 03:53:41;;;;;;;40.78;26.45;;;7.50;99.90;;;;;;5065355;28;20044;-66
2022/02/04 03:56:06;;;;;;;45.83;28.45;;;7.50;99.90;;;;;;5099034;28;20044;-66
2022/02/04 03:58:36;;;;;;;42.83;25.75;;;7.50;99.90;;;;;;5083567;28;20503;-66
2022/02/04 04:01:03;;;;;;;38.92;24.33;;;7.50;99.90;;;;;;5083372;28;20056;-66
2022/02/04 04:03:29;;;;;;;44.85;27.70;;;7.60;99.90;;;;;;5065654;28;20055;-67
2022/02/04 04:05:55;;;;;;;44.70;27.08;;;7.40;99.90;;;;;;5099746;28;20044;-66
2022/02/04 04:08:21;;;;;;;44.35;26.13;;;7.40;99.90;;;;;;5092252;28;20070;-66
2022/02/04 04:10:49;;;;;;;44.33;25.30;;;7.50;99.90;;;;;;5083385;28;20041;-66
2022/02/04 04:13:15;;;;;;;41.35;27.45;;;7.60;99.90;;;;;;5083515;28;20560;-66
2022/02/04 04:15:41;;;;;;;42.10;26.52;;;7.60;99.90;;;;;;5065244;28;20076;-66
2022/02/04 04:18:12;;;;;;;44.05;26.42;;;7.70;99.90;;;;;;5099115;28;20052;-67
2022/02/04 04:20:38;;;;;;;44.83;26.92;;;7.60;99.90;;;;;;5083139;28;20047;-67
2022/02/04 04:23:04;;;;;;;43.50;27.15;;;7.50;99.90;;;;;;5083036;28;20128;-66
2022/02/04 04:25:29;;;;;;;44.10;24.98;;;7.40;99.90;;;;;;5082972;28;20075;-66
2022/02/04 04:27:55;;;;;;;42.33;27.75;;;7.60;99.90;;;;;;5098914;28;20127;-66
2022/02/04 04:30:23;;;;;;;42.10;26.42;;;7.70;99.90;;;;;;5082621;28;20048;-66
2022/02/04 04:32:51;;;;;;;42.17;25.58;;;7.60;99.90;;;;;;5065169;28;20475;-66
2022/02/04 04:35:19;;;;;;;43.03;26.23;;;7.50;99.90;;;;;;5082428;28;20524;-66
2022/02/04 04:37:50;;;;;;;42.92;27.73;;;7.50;99.90;;;;;;5065007;28;20052;-66
2022/02/04 04:40:32;;;;;;;42.25;26.15;;;7.70;99.90;;;;;;5098747;28;20036;-66
2022/02/04 05:29:17;;;;;;;36.60;26.25;;;8.00;99.90;;;;;;5085577;28;20050;-67
2022/02/04 05:31:43;;;;;;;36.90;26.30;;;7.80;99.90;;;;;;5101343;28;20052;-66
2022/02/04 05:34:10;;;;;;;39.28;25.40;;;7.80;99.90;;;;;;5084479;28;20036;-66
2022/02/04 05:36:41;;;;;;;36.97;26.17;;;7.80;99.90;;;;;;5067233;28;20066;-66
2022/02/04 05:39:07;;;;;;;36.90;26.23;;;7.80;99.90;;;;;;5064835;28;20063;-66
2022/02/04 05:41:37;;;;;;;38.47;26.70;;;7.90;99.90;;;;;;5086020;28;20036;-66
2022/02/04 05:44:08;;;;;;;;;;;7.80;99.90;;;;;;5086087;28;20048;-66
2022/02/04 05:46:48;;;;;;;37.95;26.20;;;8.00;99.90;;;;;;5085699;28;19925;-66
2022/02/04 05:49:17;;;;;;;40.10;27.38;;;7.90;99.90;;;;;;5085652;28;20075;-66
2022/02/04 05:51:50;;;;;;;37.42;25.92;;;7.90;99.90;;;;;;5079295;28;20097;-66
2022/02/04 05:59:22;;;;;;;33.67;25.15;;;7.90;99.90;;;;;;5085546;28;20044;-66
2022/02/04 06:02:10;;;;;;;34.22;23.42;;;7.80;99.90;;;;;;5044295;28;20053;-66
2022/02/04 06:07:12;;;;;;;34.15;24.40;;;7.90;99.90;;;;;;5063842;28;20089;-66
2022/02/04 06:23:07;;;;;;;36.22;25.48;;;8.00;99.90;;;;;;5065929;28;20106;-67
2022/02/04 06:25:33;;;;;;;32.15;22.92;;;7.90;99.90;;;;;;5065498;28;20136;-67
2022/02/04 06:27:59;;;;;;;33.28;23.73;;;7.90;99.90;;;;;;5064111;28;20496;-67
2022/02/04 06:30:25;;;;;;;33.72;23.50;;;7.90;99.90;;;;;;5062145;28;20071;-68
2022/02/04 06:32:50;;;;;;;32.33;23.13;;;7.80;99.90;;;;;;5047840;28;20049;-68
2022/02/04 06:35:16;;;;;;;31.42;21.33;;;7.80;99.90;;;;;;5065268;28;20037;-66
2022/02/04 06:37:42;;;;;;;32.08;21.13;;;7.80;99.90;;;;;;5064825;28;20044;-66
2022/02/04 06:40:08;;;;;;;29.38;22.80;;;7.90;99.90;;;;;;5064386;28;20041;-67
2022/02/04 06:42:34;;;;;;;30.27;22.30;;;7.80;99.90;;;;;;5052430;28;20259;-68
2022/02/04 06:45:00;;;;;;;28.05;21.65;;;7.90;99.90;;;;;;5059406;28;20139;-66
2022/02/04 06:47:27;;;;;;;30.02;20.95;;;7.90;99.90;;;;;;5074306;28;20092;-66
2022/02/04 06:49:53;;;;;;;28.70;21.50;;;7.90;99.90;;;;;;5035984;28;20364;-66
2022/02/04 06:52:19;;;;;;;32.03;21.77;;;7.90;99.90;;;;;;5049244;28;20159;-67
2022/02/04 06:54:45;;;;;;;28.65;20.33;;;7.90;99.90;;;;;;5061902;28;20053;-67
2022/02/04 06:57:10;;;;;;;31.55;21.50;;;7.90;99.90;;;;;;5036317;28;20077;-67
2022/02/04 06:59:38;;;;;;;28.15;20.95;;;8.00;99.90;;;;;;5054818;28;20104;-68
2022/02/04 07:02:04;;;;;;;29.48;20.45;;;8.10;99.90;;;;;;5044609;28;20041;-65
2022/02/04 07:04:33;;;;;;;30.23;20.65;;;8.00;99.90;;;;;;5072564;28;20083;-65
2022/02/04 07:07:00;;;;;;;31.38;20.80;;;7.90;99.90;;;;;;5061231;28;20070;-65
2022/02/04 07:17:22;;;;;;;27.33;17.77;;;8.10;99.90;;;;;;5033398;28;20054;-64
2022/02/04 07:19:49;;;;;;;25.48;18.10;;;8.00;99.90;;;;;;5056619;28;20053;-66
2022/02/04 07:22:17;;;;;;;25.23;18.83;;;8.10;99.90;;;;;;5057316;28;20048;-63
2022/02/04 07:24:44;;;;;;;25.48;18.85;;;7.90;99.90;;;;;;5043726;28;20056;-63
2022/02/04 07:27:10;;;;;;;27.67;18.25;;;8.00;99.90;;;;;;5050459;28;20068;-63
2022/02/04 07:29:36;;;;;;;21.67;17.20;;;8.00;99.90;;;;;;5024209;28;20100;-64
2022/02/04 07:32:16;;;;;;;24.88;17.10;;;8.00;99.90;;;;;;5008513;28;20061;-65
2022/02/04 07:35:16;;;;;;;23.17;17.13;;;8.10;99.90;;;;;;5017294;28;20530;-65
2022/02/04 07:43:02;;;;;;;21.40;15.57;;;8.00;99.90;;;;;;5048503;28;20045;-65
2022/02/04 07:45:28;;;;;;;20.27;15.15;;;8.00;99.90;;;;;;5017580;28;20041;-65
2022/02/04 07:47:55;;;;;;;20.95;15.48;;;8.00;99.90;;;;;;5047078;28;20072;-65
2022/02/04 07:50:21;;;;;;;18.27;14.30;;;8.10;99.90;;;;;;5023722;28;20042;-65
2022/02/04 07:52:51;;;;;;;19.45;14.95;;;8.00;99.90;;;;;;5013156;28;20116;-65
2022/02/04 07:55:17;;;;;;;19.70;14.27;;;8.10;99.90;;;;;;5040941;28;20386;-65
2022/02/04 07:57:43;;;;;;;19.08;13.80;;;8.00;99.90;;;;;;5006318;28;20037;-66
2022/02/04 08:00:13;;;;;;;20.65;14.45;;;8.00;99.90;;;;;;5024925;28;20054;-65
2022/02/04 08:02:39;;;;;;;20.95;14.60;;;8.00;99.90;;;;;;5011857;28;20046;-65
2022/02/04 08:05:06;;;;;;;24.20;14.15;;;8.10;99.90;;;;;;5013671;28;20045;-65
2022/02/04 08:07:40;;;;;;;17.80;13.07;;;8.10;99.90;;;;;;5013150;28;20050;-64
2022/02/04 08:10:21;;;;;;;16.92;12.60;;;8.10;99.90;;;;;;5023081;28;20048;-64
2022/02/04 08:34:11;;;;;;;16.13;11.77;;;8.20;99.90;;;;;;5054719;28;20685;-63
2022/02/04 08:36:57;;;;;;;13.68;10.85;;;8.20;99.90;;;;;;5071738;28;20056;-63
2022/02/04 08:50:35;;;;;;;15.95;11.10;;;8.30;99.90;;;;;;5058322;28;20052;-62
2022/02/04 08:53:30;;;;;;;16.05;10.93;;;8.40;99.90;;;;;;5032324;28;20068;-63
2022/02/04 08:55:56;;;;;;;16.00;11.18;;;8.30;99.90;;;;;;5052980;28;20056;-63
2022/02/04 09:00:59;;;;;;;12.60;9.45;;;8.30;99.90;;;;;;5012405;28;20387;-63
2022/02/04 09:03:28;;;;;;;15.35;9.75;;;8.30;99.90;;;;;;5079702;28;20051;-63
2022/02/04 09:06:07;;;;;;;12.25;9.45;;;8.40;99.90;;;;;;5057749;28;20052;-63
2022/02/04 09:08:37;;;;;;;13.65;10.00;;;8.30;99.90;;;;;;5046263;28;20053;-63
2022/02/04 09:11:07;;;;;;;13.63;9.70;;;8.50;99.90;;;;;;5075617;28;20057;-63
2022/02/04 09:19:08;;;;;;;12.77;9.52;;;8.40;99.90;;;;;;5062160;28;20060;-63
2022/02/04 09:22:21;;;;;;;14.90;9.20;;;8.50;99.90;;;;;;5057931;28;20053;-63
2022/02/04 09:24:23;;;;;;;12.80;9.87;;;8.50;99.90;;;;;;5032753;28;20131;-63
2022/02/04 09:26:51;;;;;;;12.93;9.13;;;8.50;99.90;;;;;;5059882;28;20032;-63
2022/02/04 09:29:18;;;;;;;11.88;10.15;;;8.70;99.90;;;;;;5080270;28;20144;-62
2022/02/04 09:31:44;;;;;;;13.43;10.25;;;8.60;99.90;;;;;;5057289;28;21154;-63
2022/02/04 09:34:10;;;;;;;12.02;10.60;;;8.60;99.90;;;;;;5045968;28;20052;-62
2022/02/04 09:36:37;;;;;;;14.07;10.50;;;8.60;99.90;;;;;;5039330;28;20055;-63
2022/02/04 09:39:05;;;;;;;14.38;10.90;;;8.60;99.90;;;;;;5069847;28;20567;-63
2022/02/04 09:41:33;;;;;;;13.25;9.77;;;8.60;99.90;;;;;;5042308;28;20048;-63
2022/02/04 09:43:59;;;;;;;13.48;11.32;;;8.60;99.90;;;;;;5049668;28;20069;-63
2022/02/04 09:46:25;;;;;;;16.58;11.73;;;8.70;99.90;;;;;;5068181;28;20040;-63
2022/02/04 09:48:56;;;;;;;13.10;11.45;;;8.60;99.90;;;;;;5071517;28;20044;-63
2022/02/04 09:51:31;;;;;;;16.70;11.10;;;8.70;99.90;;;;;;5067540;28;20140;-63
2022/02/04 10:08:02;;;;;;;17.83;12.57;;;8.80;99.90;;;;;;5059142;28;20055;-63
2022/02/04 10:13:32;;;;;;;14.30;12.80;;;8.90;99.90;;;;;;5071117;28;20073;-63
2022/02/04 10:22:01;;;;;;;13.50;11.63;;;8.90;99.90;;;;;;4947673;28;20050;-63
2022/02/04 10:24:29;;;;;;;16.42;12.18;;;9.10;99.90;;;;;;4990930;28;20050;-64
2022/02/04 10:27:11;;;;;;;15.05;12.32;;;8.90;99.90;;;;;;4993014;28;20066;-63
2022/02/04 10:29:42;;;;;;;10.98;8.70;;;8.90;99.90;;;;;;4962457;28;20597;-63
2022/02/04 10:32:08;;;;;;;12.80;10.63;;;9.00;99.90;;;;;;4971315;28;20104;-63
2022/02/04 10:34:37;;;;;;;11.68;10.27;;;9.00;99.90;;;;;;4978720;28;20058;-63
2022/02/04 10:37:22;;;;;;;15.60;11.40;;;9.10;99.90;;;;;;4993534;28;20153;-63
2022/02/04 10:40:02;;;;;;;12.80;10.45;;;9.20;99.90;;;;;;5001217;28;20068;-63
2022/02/04 10:42:59;;;;;;;13.52;12.13;;;9.10;99.90;;;;;;4987181;28;20054;-63
2022/02/04 10:45:48;;;;;;;13.50;11.00;;;9.10;99.90;;;;;;4979214;28;20193;-64
2022/02/04 11:31:35;;;;;;;11.68;9.02;;;9.50;99.90;;;;;;5042079;28;20071;-64
2022/02/04 11:51:45;;;;;;;8.18;7.00;;;9.60;99.90;;;;;;5024956;28;20061;-62
2022/02/04 11:57:03;;;;;;;10.23;6.97;;;9.70;99.90;;;;;;5031278;28;20045;-63
2022/02/04 11:59:39;;;;;;;8.77;6.38;;;9.80;99.90;;;;;;5029435;28;20049;-63
2022/02/04 12:02:34;;;;;;;8.32;7.25;;;10.00;99.90;;;;;;5057369;28;20053;-63
2022/02/04 12:05:05;;;;;;;7.65;6.32;;;9.80;99.90;;;;;;5049625;28;20052;-63
2022/02/04 12:07:52;;;;;;;8.05;6.35;;;9.90;99.90;;;;;;5049081;28;20060;-63
2022/02/04 12:10:27;;;;;;;8.85;6.97;;;9.90;99.90;;;;;;5051092;28;20061;-63
2022/02/04 12:13:14;;;;;;;9.02;6.88;;;9.80;99.90;;;;;;5051873;28;20501;-63
2022/02/04 12:15:55;;;;;;;6.95;6.07;;;9.80;99.90;;;;;;5036115;28;20075;-63
2022/02/04 12:18:24;;;;;;;8.93;5.75;;;9.90;99.90;;;;;;5050777;28;20045;-62
2022/02/04 12:20:50;;;;;;;7.10;6.37;;;9.90;99.90;;;;;;5053997;28;20215;-63
2022/02/04 12:23:29;;;;;;;8.48;6.15;;;9.80;99.90;;;;;;5069764;28;20341;-63
2022/02/04 12:26:24;;;;;;;8.05;6.18;;;9.80;99.90;;;;;;5050270;28;20060;-63
2022/02/04 12:28:58;;;;;;;6.60;6.00;;;9.70;99.90;;;;;;5041116;28;20049;-63
2022/02/04 12:31:25;;;;;;;7.38;6.47;;;9.70;99.90;;;;;;5030963;28;20049;-63
2022/02/04 12:34:05;;;;;;;7.50;6.38;;;9.70;99.90;;;;;;5067075;28;20041;-63
2022/02/04 12:36:34;;;;;;;7.35;6.65;;;9.70;99.90;;;;;;5070001;28;20063;-64
2022/02/04 12:39:13;;;;;;;7.50;6.67;;;9.60;99.90;;;;;;5056561;28;20071;-63
2022/02/04 12:41:46;;;;;;;6.97;5.88;;;9.60;99.90;;;;;;5066751;28;20064;-63
2022/02/04 12:44:18;;;;;;;6.65;5.80;;;9.50;99.90;;;;;;5071458;28;20108;-63
2022/02/04 12:47:06;;;;;;;9.15;6.35;;;9.60;99.90;;;;;;5031534;28;20044;-64
2022/02/04 12:49:33;;;;;;;8.95;6.20;;;9.60;99.90;;;;;;5055066;28;20059;-64
2022/02/04 12:52:13;;;;;;;6.75;6.05;;;9.50;99.90;;;;;;5068028;28;20044;-63
2022/02/04 12:54:51;;;;;;;7.28;4.70;;;9.50;99.90;;;;;;5083249;28;20084;-63
2022/02/04 13:11:14;;;;;;;7.63;5.18;;;9.50;99.90;;;;;;4996270;28;20058;-63
2022/02/04 13:13:50;;;;;;;6.30;5.28;;;9.50;99.90;;;;;;4986883;28;20058;-63
2022/02/04 13:16:24;;;;;;;5.38;4.85;;;9.50;99.90;;;;;;5005449;28;20197;-63
2022/02/04 13:18:50;;;;;;;5.55;5.03;;;9.40;99.90;;;;;;4990032;28;20050;-63
2022/02/04 13:21:16;;;;;;;6.47;4.90;;;9.40;99.90;;;;;;4980000;28;20594;-63
2022/02/04 13:23:43;;;;;;;6.80;5.93;;;9.40;99.90;;;;;;4987169;28;20062;-63
2022/02/04 13:26:09;;;;;;;7.53;5.82;;;9.00;99.90;;;;;;4998156;28;20703;-63
2022/02/04 13:28:44;;;;;;;6.30;5.43;;;9.10;99.90;;;;;;4977911;28;20050;-64
2022/02/04 13:31:13;;;;;;;7.20;6.25;;;9.10;99.90;;;;;;4993060;28;20307;-63
2022/02/04 13:33:39;;;;;;;8.38;6.78;;;8.90;99.90;;;;;;5003901;28;20050;-63
2022/02/04 13:36:39;;;;;;;10.88;6.90;;;8.60;99.90;;;;;;4985682;28;20054;-63
2022/02/04 13:44:25;;;;;;;11.02;7.90;;;8.30;99.90;;;;;;5038882;28;20083;-63
2022/02/04 13:47:07;;;;;;;9.67;8.67;;;8.30;99.90;;;;;;5031908;28;20102;-63
2022/02/04 14:00:17;;;;;;;10.18;8.77;;;8.10;99.90;;;;;;5049454;28;20072;-63
2022/02/04 14:02:48;;;;;;;10.30;7.80;;;8.10;99.90;;;;;;5068901;28;20044;-62
2022/02/04 14:05:23;;;;;;;;;;;7.90;99.90;;;;;;5049392;28;20048;-63
2022/02/04 14:07:53;;;;;;;9.95;8.85;;;7.90;99.90;;;;;;5043244;28;19979;-62
2022/02/04 14:10:29;;;;;;;14.35;9.65;;;7.80;99.90;;;;;;5070375;28;20377;-63
2022/02/04 14:13:03;;;;;;;15.32;10.10;;;7.90;99.90;;;;;;5078918;28;20081;-62
2022/02/04 14:15:32;;;;;;;7.45;1.80;;;7.80;99.90;;;;;;5057647;28;20114;-63
2022/02/04 14:18:04;;;;;;;4.55;1.20;;;6.70;99.90;;;;;;5079337;28;20049;-62
2022/02/04 14:20:31;;;;;;;3.50;0.90;;;5.90;99.90;;;;;;5038481;28;20458;-64
2022/02/04 14:22:56;;;;;;;3.15;0.65;;;5.90;99.90;;;;;;5061060;28;20515;-63
2022/02/04 14:25:22;;;;;;;2.05;0.47;;;5.60;99.90;;;;;;5059595;28;20998;-63
2022/02/04 14:27:53;;;;;;;1.05;0.50;;;5.40;99.90;;;;;;5045077;28;20045;-63
2022/02/04 14:30:24;;;;;;;0.88;0.50;;;5.50;99.90;;;;;;5074560;28;20056;-63
2022/02/04 14:32:57;;;;;;;0.68;0.50;;;5.30;99.90;;;;;;5061279;28;20305;-63
2022/02/04 14:54:34;;;;;;;0.40;0.40;;;4.70;99.90;;;;;;5029587;28;20048;-66
2022/02/04 15:02:26;;;;;;;0.47;0.30;;;4.10;99.90;;;;;;5045229;28;20087;-66
2022/02/04 15:04:53;;;;;;;1.65;0.50;;;3.70;99.90;;;;;;5045603;28;20045;-66
2022/02/04 15:07:20;;;;;;;2.42;0.70;;;3.70;99.90;;;;;;5038620;28;20254;-63
2022/02/04 15:09:53;;;;;;;3.17;0.68;;;3.60;99.90;;;;;;5043011;28;20045;-63
2022/02/04 15:12:19;;;;;;;0.85;0.60;;;3.80;99.90;;;;;;5038978;28;20561;-62
2022/02/04 15:14:45;;;;;;;0.63;0.43;;;3.40;99.90;;;;;;5056935;28;20098;-62
2022/02/04 15:17:11;;;;;;;0.55;0.50;;;3.20;99.90;;;;;;5064308;28;20051;-63
2022/02/04 15:19:36;;;;;;;0.50;0.50;;;3.60;99.90;;;;;;5031937;28;20048;-64
2022/02/04 15:22:08;;;;;;;0.60;0.60;;;3.60;99.90;;;;;;5080428;28;20041;-65
2022/02/04 15:24:34;;;;;;;0.60;0.60;;;3.30;99.90;;;;;;5050003;28;20045;-65
2022/02/04 15:27:01;;;;;;;1.30;0.90;;;3.30;99.90;;;;;;5053527;28;20052;-65
2022/02/04 15:29:29;;;;;;;1.55;0.93;;;3.00;99.90;;;;;;5063417;28;20129;-65
2022/02/04 15:31:58;;;;;;;2.22;0.80;;;3.00;99.90;;;;;;5049937;28;20217;-65
2022/02/04 15:34:25;;;;;;;0.80;0.80;;;2.70;99.90;;;;;;5034866;28;20052;-64
2022/02/04 15:36:51;;;;;;;1.25;1.15;;;2.80;99.90;;;;;;5074493;28;20269;-65
2022/02/04 15:39:20;;;;;;;1.20;1.10;;;3.00;99.90;;;;;;5058217;28;20045;-63
2022/02/04 15:41:47;;;;;;;2.40;1.33;;;2.70;99.90;;;;;;5046334;28;20051;-63
2022/02/04 16:03:38;;;;;;;2.65;1.90;;;2.80;99.90;;;;;;4923675;29;20040;-64
2022/02/04 16:06:05;;;;;;;4.53;1.70;;;2.90;99.90;;;;;;4906350;29;20148;-66
2022/02/04 16:08:31;;;;;;;3.22;1.70;;;2.90;99.90;;;;;;4929117;29;20048;-65
2022/02/04 16:11:13;;;;;;;3.17;1.30;;;3.30;99.90;;;;;;4899630;29;20092;-65
2022/02/04 16:13:47;;;;;;;1.65;1.20;;;3.00;99.90;;;;;;4892790;29;20052;-65
2022/02/04 16:18:56;;;;;;;2.10;1.40;;;3.30;99.90;;;;;;4907345;29;20081;-65
2022/02/04 16:21:33;;;;;;;2.88;1.80;;;3.10;99.90;;;;;;4932339;29;20064;-65
2022/02/04 16:24:18;;;;;;;2.58;1.70;;;3.30;99.90;;;;;;4919641;29;20137;-66
2022/02/04 16:26:57;;;;;;;1.98;1.48;;;3.40;99.90;;;;;;4921929;29;20052;-66
2022/02/04 16:29:23;;;;;;;2.50;1.42;;;3.30;99.90;;;;;;4922271;29;20652;-65
2022/02/04 16:31:49;;;;;;;3.00;1.50;;;3.20;99.90;;;;;;4899794;29;20064;-64
2022/02/04 16:34:16;;;;;;;2.15;1.13;;;3.00;99.90;;;;;;4949020;28;20081;-65
2022/02/04 16:36:45;;;;;;;2.83;1.20;;;3.30;99.90;;;;;;4992650;28;20076;-65
2022/02/04 16:39:12;;;;;;;2.15;1.50;;;3.20;99.90;;;;;;5090075;28;20364;-65
2022/02/04 16:42:14;;;;;;;3.28;1.40;;;3.10;99.90;;;;;;5084599;28;20059;-65
2022/02/04 16:44:32;;;;;;;2.00;1.40;;;3.10;99.90;;;;;;5062667;28;20048;-64
2022/02/04 16:47:00;;;;;;;4.03;1.40;;;3.10;99.90;;;;;;5038088;28;20087;-67
2022/02/04 16:49:26;;;;;;;4.78;1.23;;;3.30;99.90;;;;;;5073869;28;20390;-66
2022/02/04 16:51:52;;;;;;;3.97;1.38;;;3.20;99.90;;;;;;5059325;28;20279;-65
2022/02/04 16:54:19;;;;;;;4.80;1.80;;;3.50;99.90;;;;;;5056549;28;20064;-65
2022/02/04 16:56:45;;;;;;;2.08;1.33;;;3.40;99.90;;;;;;5046013;28;20094;-65
2022/02/04 16:59:11;;;;;;;5.20;1.88;;;3.20;99.90;;;;;;5049994;28;20052;-65
2022/02/04 17:01:37;;;;;;;3.13;1.63;;;3.20;99.90;;;;;;5050116;28;20103;-65
2022/02/04 17:04:04;;;;;;;3.60;1.63;;;3.30;99.90;;;;;;5064436;28;20056;-65
2022/02/04 17:06:38;;;;;;;3.40;1.60;;;3.60;99.90;;;;;;5053324;28;20108;-65
2022/02/04 17:09:21;;;;;;;4.22;1.88;;;3.30;99.90;;;;;;5047883;28;20055;-67
2022/02/04 17:11:49;;;;;;;4.47;1.65;;;3.20;99.90;;;;;;5071263;28;20056;-65
2022/02/04 17:14:16;;;;;;;4.95;1.50;;;3.20;99.90;;;;;;5064688;28;20045;-65
2022/02/04 17:16:43;;;;;;;5.40;1.83;;;3.50;99.90;;;;;;5057318;28;20135;-65
2022/02/04 17:19:10;;;;;;;7.45;1.55;;;3.40;99.90;;;;;;5060470;28;20044;-65
2022/02/04 17:21:38;;;;;;;4.00;1.60;;;3.30;99.90;;;;;;5066766;28;20126;-66
2022/02/04 17:24:04;;;;;;;4.30;1.10;;;3.60;99.90;;;;;;5072676;28;20064;-66
2022/02/04 17:26:29;;;;;;;4.78;1.85;;;3.50;99.90;;;;;;5051088;28;20368;-63
2022/02/04 17:28:55;;;;;;;5.22;1.15;;;3.40;99.90;;;;;;5059682;28;20099;-62
2022/02/04 17:31:21;;;;;;;6.50;1.98;;;3.50;99.90;;;;;;5063165;28;20130;-63
2022/02/04 17:33:47;;;;;;;4.50;1.30;;;3.60;99.90;;;;;;5039304;28;20037;-63
2022/02/04 17:36:13;;;;;;;3.22;1.13;;;3.60;99.90;;;;;;5070393;28;20086;-65
2022/02/04 17:38:40;;;;;;;5.97;1.30;;;3.40;99.90;;;;;;5064466;28;20427;-65
2022/02/04 17:41:08;;;;;;;6.22;1.10;;;3.70;99.90;;;;;;5046950;28;20049;-65
2022/02/04 17:43:34;;;;;;;5.78;1.30;;;3.80;99.90;;;;;;5071382;28;20049;-65
2022/02/04 17:46:00;;;;;;;5.95;1.60;;;3.80;99.90;;;;;;5049567;28;20081;-65
2022/02/04 17:48:39;;;;;;;6.10;1.92;;;3.60;99.90;;;;;;5076987;28;20045;-65
2022/02/04 17:51:27;;;;;;;4.28;1.30;;;3.70;99.90;;;;;;5043395;28;20635;-65
2022/02/04 17:53:56;;;;;;;3.60;1.10;;;3.80;99.90;;;;;;5061558;28;20064;-64
2022/02/04 17:56:48;;;;;;;3.40;0.98;;;3.40;99.90;;;;;;5048509;28;20058;-64
2022/02/04 17:59:33;;;;;;;3.72;1.08;;;3.40;99.90;;;;;;5067646;28;20040;-64
2022/02/04 18:02:09;;;;;;;4.57;1.17;;;3.40;99.90;;;;;;5028974;28;20090;-65
2022/02/04 18:07:24;;;;;;;7.32;1.40;;;3.20;99.90;;;;;;5052388;28;20138;-65
2022/02/04 18:09:50;;;;;;;;;;;3.20;99.90;;;;;;5084999;28;20163;-65
2022/02/04 18:12:21;;;;;;;6.47;1.00;;;3.30;99.90;;;;;;5052446;28;19920;-66
2022/02/04 18:14:48;;;;;;;5.97;1.38;;;3.20;99.90;;;;;;5086823;28;20540;-64
2022/02/04 18:17:14;;;;;;;5.45;1.02;;;3.30;99.90;;;;;;5055807;28;20480;-64
2022/02/04 18:19:41;;;;;;;8.40;1.30;;;3.00;99.90;;;;;;5066189;28;20037;-66
2022/02/04 18:22:07;;;;;;;3.60;1.10;;;3.30;99.90;;;;;;5053686;28;20449;-67
2022/02/04 18:24:33;;;;;;;5.38;1.27;;;3.10;99.90;;;;;;5070558;28;20091;-66
2022/02/04 18:26:59;;;;;;;9.00;1.40;;;2.80;99.90;;;;;;5058345;28;20049;-66
2022/02/04 18:29:25;;;;;;;6.78;2.00;;;2.90;99.90;;;;;;5047742;28;20052;-66
2022/02/04 18:31:51;;;;;;;4.88;1.13;;;3.10;99.90;;;;;;5041004;28;20057;-67
2022/02/04 18:34:17;;;;;;;8.30;1.60;;;2.80;99.90;;;;;;5047216;28;20078;-67
2022/02/04 18:36:45;;;;;;;6.30;1.40;;;3.10;99.90;;;;;;5050118;28;20080;-67
2022/02/04 18:39:26;;;;;;;7.38;1.30;;;3.10;99.90;;;;;;5037827;28;20053;-69
2022/02/04 18:44:21;;;;;;;10.18;2.25;;;3.20;99.90;;;;;;5040012;28;20424;-67
2022/02/04 18:54:40;;;;;;;13.85;2.55;;;3.10;99.90;;;;;;5045968;28;20114;-65
2022/02/04 18:57:25;;;;;;;;;;;3.20;99.90;;;;;;5077706;28;20083;-65
2022/02/04 19:02:18;;;;;;;17.88;3.78;;;3.40;99.90;;;;;;5041255;28;20391;-65
2022/02/04 19:05:07;;;;;;;10.07;2.28;;;3.60;99.90;;;;;;5052576;28;20078;-65
2022/02/04 19:07:42;;;;;;;10.93;2.00;;;3.50;99.90;;;;;;5068356;28;20041;-65
2022/02/04 19:10:08;;;;;;;6.28;1.80;;;3.60;99.90;;;;;;5069479;28;20495;-65
2022/02/04 19:12:43;;;;;;;7.85;2.05;;;3.60;99.90;;;;;;5049878;28;20534;-65
2022/02/04 19:18:22;;;;;;;7.20;1.70;;;3.90;99.90;;;;;;5063864;28;20056;-64
2022/02/04 19:20:44;;;;;;;9.77;2.35;;;3.70;99.90;;;;;;5021400;28;20435;-65
2022/02/04 19:23:18;;;;;;;14.20;2.33;;;3.80;99.90;;;;;;5034271;28;20052;-64
2022/02/04 19:25:44;;;;;;;14.82;2.03;;;3.50;99.90;;;;;;5062783;28;20044;-64
2022/02/04 19:28:12;;;;;;;10.43;2.00;;;3.80;99.90;;;;;;5058924;28;20060;-65
2022/02/04 19:30:49;;;;;;;9.20;1.60;;;3.70;99.90;;;;;;5034117;28;20056;-66
2022/02/04 19:33:17;;;;;;;9.23;2.13;;;3.40;99.90;;;;;;5040641;28;20061;-65
2022/02/04 19:35:43;;;;;;;12.85;2.55;;;3.50;99.90;;;;;;5075674;28;20052;-65
2022/02/04 19:38:09;;;;;;;16.20;2.90;;;3.40;99.90;;;;;;5059906;28;20109;-65
2022/02/04 19:40:37;;;;;;;13.77;2.35;;;3.20;99.90;;;;;;5052663;28;20095;-65
2022/02/04 19:43:02;;;;;;;13.65;3.45;;;3.10;99.90;;;;;;5072862;28;20060;-65
2022/02/04 19:45:33;;;;;;;12.98;4.93;;;3.00;99.90;;;;;;5054037;28;20077;-65